sensor_id;sensor_type;location;lat;lon;timestamp;pressure;altitude;pressure_sealevel;temperature
59339;BMP280;45117;50.960;5.500;2022-11-15T00:00:57;100019.50;;;10.97
59339;BMP280;45117;50.960;5.500;2022-11-15T00:03:27;100015.31;;;10.96
59339;BMP280;45117;50.960;5.500;2022-11-15T00:05:55;100006.50;;;10.95
59339;BMP280;45117;50.960;5.500;2022-11-15T00:08:28;100006.41;;;10.99
59339;BMP280;45117;50.960;5.500;2022-11-15T00:10:55;100007.56;;;10.98
59339;BMP280;45117;50.960;5.500;2022-11-15T00:13:22;100001.78;;;10.99
59339;BMP280;45117;50.960;5.500;2022-11-15T00:15:48;100002.94;;;10.98
59339;BMP280;45117;50.960;5.500;2022-11-15T00:18:15;100001.44;;;10.97
59339;BMP280;45117;50.960;5.500;2022-11-15T00:20:42;100009.78;;;11.03
59339;BMP280;45117;50.960;5.500;2022-11-15T00:23:10;100001.56;;;11.10
59339;BMP280;45117;50.960;5.500;2022-11-15T00:25:36;100001.06;;;11.15
59339;BMP280;45117;50.960;5.500;2022-11-15T00:28:03;99998.19;;;11.06
59339;BMP280;45117;50.960;5.500;2022-11-15T00:30:30;100002.59;;;11.16
59339;BMP280;45117;50.960;5.500;2022-11-15T00:32:56;100007.69;;;11.10
59339;BMP280;45117;50.960;5.500;2022-11-15T00:35:23;100003.91;;;11.08
59339;BMP280;45117;50.960;5.500;2022-11-15T00:37:49;100009.28;;;11.08
59339;BMP280;45117;50.960;5.500;2022-11-15T00:40:17;99998.03;;;11.13
59339;BMP280;45117;50.960;5.500;2022-11-15T00:42:43;100003.16;;;11.07
59339;BMP280;45117;50.960;5.500;2022-11-15T00:45:10;99990.25;;;11.18
59339;BMP280;45117;50.960;5.500;2022-11-15T00:47:36;99993.34;;;11.17
59339;BMP280;45117;50.960;5.500;2022-11-15T00:50:04;99994.03;;;11.21
59339;BMP280;45117;50.960;5.500;2022-11-15T00:52:30;99991.84;;;11.16
59339;BMP280;45117;50.960;5.500;2022-11-15T00:54:57;99998.16;;;11.26
59339;BMP280;45117;50.960;5.500;2022-11-15T00:57:24;99989.41;;;11.21
59339;BMP280;45117;50.960;5.500;2022-11-15T00:59:51;99994.78;;;11.21
59339;BMP280;45117;50.960;5.500;2022-11-15T01:02:17;99986.41;;;11.19
59339;BMP280;45117;50.960;5.500;2022-11-15T01:04:44;99980.59;;;11.21
59339;BMP280;45117;50.960;5.500;2022-11-15T01:07:11;99977.91;;;11.21
59339;BMP280;45117;50.960;5.500;2022-11-15T01:09:37;99980.13;;;11.26
59339;BMP280;45117;50.960;5.500;2022-11-15T01:12:04;99982.03;;;11.26
59339;BMP280;45117;50.960;5.500;2022-11-15T01:14:32;99971.72;;;11.24
59339;BMP280;45117;50.960;5.500;2022-11-15T01:16:58;99967.16;;;11.21
59339;BMP280;45117;50.960;5.500;2022-11-15T01:19:25;99964.81;;;11.23
59339;BMP280;45117;50.960;5.500;2022-11-15T01:21:52;99969.38;;;11.26
59339;BMP280;45117;50.960;5.500;2022-11-15T01:24:18;99966.34;;;11.24
59339;BMP280;45117;50.960;5.500;2022-11-15T01:26:44;99969.84;;;11.21
59339;BMP280;45117;50.960;5.500;2022-11-15T01:29:11;99954.94;;;11.20
59339;BMP280;45117;50.960;5.500;2022-11-15T01:31:39;99960.22;;;11.24
59339;BMP280;45117;50.960;5.500;2022-11-15T01:34:05;99956.41;;;11.21
59339;BMP280;45117;50.960;5.500;2022-11-15T01:36:32;99968.75;;;11.18
59339;BMP280;45117;50.960;5.500;2022-11-15T01:38:59;99963.09;;;11.33
59339;BMP280;45117;50.960;5.500;2022-11-15T01:41:27;99963.47;;;11.31
59339;BMP280;45117;50.960;5.500;2022-11-15T01:43:55;99957.78;;;11.29
59339;BMP280;45117;50.960;5.500;2022-11-15T01:46:26;99963.09;;;11.33
59339;BMP280;45117;50.960;5.500;2022-11-15T01:48:57;99959.13;;;11.37
59339;BMP280;45117;50.960;5.500;2022-11-15T01:51:27;99953.75;;;11.37
59339;BMP280;45117;50.960;5.500;2022-11-15T01:53:58;99959.47;;;11.39
59339;BMP280;45117;50.960;5.500;2022-11-15T01:56:30;99963.00;;;11.36
59339;BMP280;45117;50.960;5.500;2022-11-15T01:59:00;99962.16;;;11.39
59339;BMP280;45117;50.960;5.500;2022-11-15T02:01:30;99962.16;;;11.39
59339;BMP280;45117;50.960;5.500;2022-11-15T02:04:03;99958.78;;;11.35
59339;BMP280;45117;50.960;5.500;2022-11-15T02:06:32;99959.38;;;11.43
59339;BMP280;45117;50.960;5.500;2022-11-15T02:09:00;99958.31;;;11.40
59339;BMP280;45117;50.960;5.500;2022-11-15T02:11:26;99955.50;;;11.44
59339;BMP280;45117;50.960;5.500;2022-11-15T02:13:54;99950.56;;;11.42
59339;BMP280;45117;50.960;5.500;2022-11-15T02:16:27;99940.91;;;11.45
59339;BMP280;45117;50.960;5.500;2022-11-15T02:19:00;99946.28;;;11.45
59339;BMP280;45117;50.960;5.500;2022-11-15T02:21:33;99945.09;;;11.46
59339;BMP280;45117;50.960;5.500;2022-11-15T02:24:25;99940.81;;;11.48
59339;BMP280;45117;50.960;5.500;2022-11-15T02:27:24;99936.47;;;11.55
59339;BMP280;45117;50.960;5.500;2022-11-15T02:30:02;99934.19;;;11.53
59339;BMP280;45117;50.960;5.500;2022-11-15T02:32:35;99939.66;;;11.49
59339;BMP280;45117;50.960;5.500;2022-11-15T02:35:12;99927.38;;;11.48
59339;BMP280;45117;50.960;5.500;2022-11-15T02:37:44;99926.97;;;11.50
59339;BMP280;45117;50.960;5.500;2022-11-15T02:40:17;99923.00;;;11.55
59339;BMP280;45117;50.960;5.500;2022-11-15T02:42:53;99921.50;;;11.54
59339;BMP280;45117;50.960;5.500;2022-11-15T02:45:42;99915.59;;;11.59
59339;BMP280;45117;50.960;5.500;2022-11-15T02:48:12;99912.91;;;11.59
59339;BMP280;45117;50.960;5.500;2022-11-15T02:50:40;99911.09;;;11.56
59339;BMP280;45117;50.960;5.500;2022-11-15T02:53:08;99908.00;;;11.57
59339;BMP280;45117;50.960;5.500;2022-11-15T02:55:36;99908.31;;;11.59
59339;BMP280;45117;50.960;5.500;2022-11-15T02:58:19;99899.41;;;11.62
59339;BMP280;45117;50.960;5.500;2022-11-15T03:00:58;99904.03;;;11.62
59339;BMP280;45117;50.960;5.500;2022-11-15T03:03:44;99897.25;;;11.57
59339;BMP280;45117;50.960;5.500;2022-11-15T03:06:20;99897.88;;;11.61
59339;BMP280;45117;50.960;5.500;2022-11-15T03:08:56;99891.34;;;11.62
59339;BMP280;45117;50.960;5.500;2022-11-15T03:11:24;99887.13;;;11.61
59339;BMP280;45117;50.960;5.500;2022-11-15T03:13:56;99890.00;;;11.54
59339;BMP280;45117;50.960;5.500;2022-11-15T03:16:27;99884.44;;;11.61
59339;BMP280;45117;50.960;5.500;2022-11-15T03:19:00;99885.72;;;11.57
59339;BMP280;45117;50.960;5.500;2022-11-15T03:21:30;99882.19;;;11.60
59339;BMP280;45117;50.960;5.500;2022-11-15T03:23:58;99886.03;;;11.59
59339;BMP280;45117;50.960;5.500;2022-11-15T03:26:28;99874.13;;;11.60
59339;BMP280;45117;50.960;5.500;2022-11-15T03:28:58;99877.97;;;11.59
59339;BMP280;45117;50.960;5.500;2022-11-15T03:31:33;99877.25;;;11.58
59339;BMP280;45117;50.960;5.500;2022-11-15T03:34:21;99876.81;;;11.60
59339;BMP280;45117;50.960;5.500;2022-11-15T03:36:49;99875.63;;;11.61
59339;BMP280;45117;50.960;5.500;2022-11-15T03:39:16;99879.19;;;11.58
59339;BMP280;45117;50.960;5.500;2022-11-15T03:41:47;99878.72;;;11.59
59339;BMP280;45117;50.960;5.500;2022-11-15T03:44:21;99876.16;;;11.56
59339;BMP280;45117;50.960;5.500;2022-11-15T03:46:58;99866.00;;;11.47
59339;BMP280;45117;50.960;5.500;2022-11-15T03:49:31;99865.75;;;11.58
59339;BMP280;45117;50.960;5.500;2022-11-15T03:52:00;99871.28;;;11.50
59339;BMP280;45117;50.960;5.500;2022-11-15T03:54:27;99875.81;;;11.54
59339;BMP280;45117;50.960;5.500;2022-11-15T03:56:54;99877.75;;;11.53
59339;BMP280;45117;50.960;5.500;2022-11-15T03:59:20;99883.88;;;11.54
59339;BMP280;45117;50.960;5.500;2022-11-15T04:01:47;99876.97;;;11.52
59339;BMP280;45117;50.960;5.500;2022-11-15T04:04:13;99879.66;;;11.52
59339;BMP280;45117;50.960;5.500;2022-11-15T04:06:41;99885.38;;;11.55
59339;BMP280;45117;50.960;5.500;2022-11-15T04:09:07;99879.25;;;11.54
59339;BMP280;45117;50.960;5.500;2022-11-15T04:11:34;99872.06;;;11.51
59339;BMP280;45117;50.960;5.500;2022-11-15T04:14:00;99868.25;;;11.48
59339;BMP280;45117;50.960;5.500;2022-11-15T04:16:27;99865.56;;;11.48
59339;BMP280;45117;50.960;5.500;2022-11-15T04:18:54;99865.16;;;11.50
59339;BMP280;45117;50.960;5.500;2022-11-15T04:21:34;99866.56;;;11.55
59339;BMP280;45117;50.960;5.500;2022-11-15T04:24:19;99862.72;;;11.56
59339;BMP280;45117;50.960;5.500;2022-11-15T04:26:46;99867.75;;;11.54
59339;BMP280;45117;50.960;5.500;2022-11-15T04:29:12;99869.78;;;11.49
59339;BMP280;45117;50.960;5.500;2022-11-15T04:31:56;99862.38;;;11.54
59339;BMP280;45117;50.960;5.500;2022-11-15T04:34:22;99863.13;;;11.54
59339;BMP280;45117;50.960;5.500;2022-11-15T04:36:49;99870.78;;;11.56
59339;BMP280;45117;50.960;5.500;2022-11-15T04:39:33;99868.50;;;11.54
59339;BMP280;45117;50.960;5.500;2022-11-15T04:42:00;99869.25;;;11.55
59339;BMP280;45117;50.960;5.500;2022-11-15T04:44:26;99876.97;;;11.52
59339;BMP280;45117;50.960;5.500;2022-11-15T04:46:53;99874.97;;;11.57
59339;BMP280;45117;50.960;5.500;2022-11-15T04:49:19;99872.78;;;11.51
59339;BMP280;45117;50.960;5.500;2022-11-15T04:51:46;99871.53;;;11.56
59339;BMP280;45117;50.960;5.500;2022-11-15T04:54:13;99866.91;;;11.57
59339;BMP280;45117;50.960;5.500;2022-11-15T04:56:41;99861.19;;;11.55
59339;BMP280;45117;50.960;5.500;2022-11-15T04:59:07;99869.59;;;11.57
59339;BMP280;45117;50.960;5.500;2022-11-15T05:01:34;99868.84;;;11.56
59339;BMP280;45117;50.960;5.500;2022-11-15T05:04:00;99867.00;;;11.53
59339;BMP280;45117;50.960;5.500;2022-11-15T05:06:44;99868.84;;;11.56
59339;BMP280;45117;50.960;5.500;2022-11-15T05:09:11;99859.78;;;11.50
59339;BMP280;45117;50.960;5.500;2022-11-15T05:11:40;99864.31;;;11.53
59339;BMP280;45117;50.960;5.500;2022-11-15T05:14:07;99881.19;;;11.54
59339;BMP280;45117;50.960;5.500;2022-11-15T05:16:33;99901.16;;;11.52
59339;BMP280;45117;50.960;5.500;2022-11-15T05:19:00;99907.31;;;11.37
59339;BMP280;45117;50.960;5.500;2022-11-15T05:21:26;99909.50;;;11.26
59339;BMP280;45117;50.960;5.500;2022-11-15T05:23:53;99911.38;;;11.12
59339;BMP280;45117;50.960;5.500;2022-11-15T05:26:19;99916.47;;;11.07
59339;BMP280;45117;50.960;5.500;2022-11-15T05:28:52;99919.31;;;11.00
59339;BMP280;45117;50.960;5.500;2022-11-15T05:31:18;99912.50;;;10.95
59339;BMP280;45117;50.960;5.500;2022-11-15T05:33:45;99908.38;;;10.90
59339;BMP280;45117;50.960;5.500;2022-11-15T05:36:15;99905.84;;;10.83
59339;BMP280;45117;50.960;5.500;2022-11-15T05:38:43;99912.78;;;10.81
59339;BMP280;45117;50.960;5.500;2022-11-15T05:41:11;99908.34;;;10.74
59339;BMP280;45117;50.960;5.500;2022-11-15T05:43:39;99909.19;;;10.71
59339;BMP280;45117;50.960;5.500;2022-11-15T05:46:07;99906.22;;;10.65
59339;BMP280;45117;50.960;5.500;2022-11-15T05:48:36;99902.09;;;10.61
59339;BMP280;45117;50.960;5.500;2022-11-15T05:51:04;99903.63;;;10.62
59339;BMP280;45117;50.960;5.500;2022-11-15T05:53:31;99894.94;;;10.54
59339;BMP280;45117;50.960;5.500;2022-11-15T05:55:57;99916.34;;;10.58
59339;BMP280;45117;50.960;5.500;2022-11-15T05:58:24;99914.81;;;10.57
59339;BMP280;45117;50.960;5.500;2022-11-15T06:00:50;99917.66;;;10.50
59339;BMP280;45117;50.960;5.500;2022-11-15T06:03:18;99912.69;;;10.48
59339;BMP280;45117;50.960;5.500;2022-11-15T06:05:45;99915.81;;;10.47
59339;BMP280;45117;50.960;5.500;2022-11-15T06:08:11;99914.63;;;10.48
59339;BMP280;45117;50.960;5.500;2022-11-15T06:10:37;99919.66;;;10.46
59339;BMP280;45117;50.960;5.500;2022-11-15T06:13:04;99924.28;;;10.45
59339;BMP280;45117;50.960;5.500;2022-11-15T06:15:31;99927.38;;;10.44
59339;BMP280;45117;50.960;5.500;2022-11-15T06:17:58;99923.16;;;10.43
59339;BMP280;45117;50.960;5.500;2022-11-15T06:20:27;99918.97;;;10.42
59339;BMP280;45117;50.960;5.500;2022-11-15T06:22:57;99919.47;;;10.36
59339;BMP280;45117;50.960;5.500;2022-11-15T06:25:24;99917.53;;;10.37
59339;BMP280;45117;50.960;5.500;2022-11-15T06:27:51;99919.84;;;10.35
59339;BMP280;45117;50.960;5.500;2022-11-15T06:30:18;99917.25;;;10.31
59339;BMP280;45117;50.960;5.500;2022-11-15T06:32:44;99921.44;;;10.32
59339;BMP280;45117;50.960;5.500;2022-11-15T06:35:11;99925.28;;;10.31
59339;BMP280;45117;50.960;5.500;2022-11-15T06:37:39;99930.31;;;10.29
59339;BMP280;45117;50.960;5.500;2022-11-15T06:40:08;99936.84;;;10.28
59339;BMP280;45117;50.960;5.500;2022-11-15T06:42:34;99943.78;;;10.26
59339;BMP280;45117;50.960;5.500;2022-11-15T06:45:01;99941.84;;;10.26
59339;BMP280;45117;50.960;5.500;2022-11-15T06:47:28;99936.16;;;10.24
59339;BMP280;45117;50.960;5.500;2022-11-15T06:49:55;99944.94;;;10.25
59339;BMP280;45117;50.960;5.500;2022-11-15T06:52:21;99943.09;;;10.22
59339;BMP280;45117;50.960;5.500;2022-11-15T06:54:49;99937.03;;;10.18
59339;BMP280;45117;50.960;5.500;2022-11-15T06:57:16;99946.66;;;10.15
59339;BMP280;45117;50.960;5.500;2022-11-15T06:59:42;99945.63;;;10.09
59339;BMP280;45117;50.960;5.500;2022-11-15T07:02:12;99942.88;;;10.13
59339;BMP280;45117;50.960;5.500;2022-11-15T07:04:38;99955.53;;;10.12
59339;BMP280;45117;50.960;5.500;2022-11-15T07:07:05;99950.50;;;10.14
59339;BMP280;45117;50.960;5.500;2022-11-15T07:09:31;99949.75;;;10.14
59339;BMP280;45117;50.960;5.500;2022-11-15T07:11:59;99949.75;;;10.14
59339;BMP280;45117;50.960;5.500;2022-11-15T07:14:26;99956.63;;;10.15
59339;BMP280;45117;50.960;5.500;2022-11-15T07:16:52;99957.38;;;10.15
59339;BMP280;45117;50.960;5.500;2022-11-15T07:19:19;99950.84;;;10.16
59339;BMP280;45117;50.960;5.500;2022-11-15T07:21:45;99956.97;;;10.17
59339;BMP280;45117;50.960;5.500;2022-11-15T07:24:12;99952.78;;;10.16
59339;BMP280;45117;50.960;5.500;2022-11-15T07:26:38;99954.25;;;10.20
59339;BMP280;45117;50.960;5.500;2022-11-15T07:29:06;99956.16;;;10.20
59339;BMP280;45117;50.960;5.500;2022-11-15T07:31:32;99956.09;;;10.23
59339;BMP280;45117;50.960;5.500;2022-11-15T07:33:59;99954.16;;;10.24
59339;BMP280;45117;50.960;5.500;2022-11-15T07:36:26;99948.38;;;10.25
59339;BMP280;45117;50.960;5.500;2022-11-15T07:38:52;99951.06;;;10.25
59339;BMP280;45117;50.960;5.500;2022-11-15T07:41:18;99946.75;;;10.31
59339;BMP280;45117;50.960;5.500;2022-11-15T07:43:45;99948.00;;;10.47
59339;BMP280;45117;50.960;5.500;2022-11-15T07:46:13;99944.34;;;10.57
59339;BMP280;45117;50.960;5.500;2022-11-15T07:48:39;99945.84;;;10.58
59339;BMP280;45117;50.960;5.500;2022-11-15T07:51:06;99961.50;;;10.63
59339;BMP280;45117;50.960;5.500;2022-11-15T07:53:32;99963.66;;;10.68
59339;BMP280;45117;50.960;5.500;2022-11-15T07:55:59;99972.75;;;10.74
59339;BMP280;45117;50.960;5.500;2022-11-15T07:58:25;99966.56;;;10.77
59339;BMP280;45117;50.960;5.500;2022-11-15T08:00:52;99973.78;;;10.80
59339;BMP280;45117;50.960;5.500;2022-11-15T08:03:20;99974.53;;;10.81
59339;BMP280;45117;50.960;5.500;2022-11-15T08:05:50;99971.09;;;10.80
59339;BMP280;45117;50.960;5.500;2022-11-15T08:08:16;99963.53;;;10.75
59339;BMP280;45117;50.960;5.500;2022-11-15T08:10:43;99966.63;;;10.74
59339;BMP280;45117;50.960;5.500;2022-11-15T08:13:11;99974.00;;;10.70
59339;BMP280;45117;50.960;5.500;2022-11-15T08:15:38;99971.59;;;10.75
59339;BMP280;45117;50.960;5.500;2022-11-15T08:18:06;99973.47;;;10.78
59339;BMP280;45117;50.960;5.500;2022-11-15T08:20:36;99955.00;;;10.80
59339;BMP280;45117;50.960;5.500;2022-11-15T08:23:03;99956.47;;;10.81
59339;BMP280;45117;50.960;5.500;2022-11-15T08:25:31;99950.44;;;10.77
59339;BMP280;45117;50.960;5.500;2022-11-15T08:27:59;99955.34;;;10.82
59339;BMP280;45117;50.960;5.500;2022-11-15T08:30:26;99948.59;;;10.74
59339;BMP280;45117;50.960;5.500;2022-11-15T08:32:53;99949.03;;;10.73
59339;BMP280;45117;50.960;5.500;2022-11-15T08:35:22;99946.75;;;10.71
59339;BMP280;45117;50.960;5.500;2022-11-15T08:37:52;99948.19;;;10.76
59339;BMP280;45117;50.960;5.500;2022-11-15T08:40:19;99937.59;;;10.69
59339;BMP280;45117;50.960;5.500;2022-11-15T08:42:46;99944.50;;;10.70
59339;BMP280;45117;50.960;5.500;2022-11-15T08:45:13;99940.63;;;10.71
59339;BMP280;45117;50.960;5.500;2022-11-15T08:47:39;99933.66;;;10.73
59339;BMP280;45117;50.960;5.500;2022-11-15T08:50:07;99927.22;;;10.71
59339;BMP280;45117;50.960;5.500;2022-11-15T08:52:34;99919.59;;;10.69
59339;BMP280;45117;50.960;5.500;2022-11-15T08:55:02;99913.78;;;10.71
59339;BMP280;45117;50.960;5.500;2022-11-15T08:57:28;99911.03;;;10.74
59339;BMP280;45117;50.960;5.500;2022-11-15T08:59:55;99900.09;;;10.81
59339;BMP280;45117;50.960;5.500;2022-11-15T09:02:21;99903.53;;;11.18
59339;BMP280;45117;50.960;5.500;2022-11-15T09:04:48;99899.19;;;11.40
59339;BMP280;45117;50.960;5.500;2022-11-15T09:07:14;99898.28;;;11.76
59339;BMP280;45117;50.960;5.500;2022-11-15T09:09:41;99899.22;;;11.98
59339;BMP280;45117;50.960;5.500;2022-11-15T09:12:09;99900.88;;;12.38
59339;BMP280;45117;50.960;5.500;2022-11-15T09:14:36;99886.19;;;12.26
59339;BMP280;45117;50.960;5.500;2022-11-15T09:17:03;99881.88;;;12.28
59339;BMP280;45117;50.960;5.500;2022-11-15T09:19:29;99874.16;;;12.43
59339;BMP280;45117;50.960;5.500;2022-11-15T09:21:56;99872.44;;;12.49
59339;BMP280;45117;50.960;5.500;2022-11-15T09:24:22;99874.28;;;12.65
59339;BMP280;45117;50.960;5.500;2022-11-15T09:26:49;99889.47;;;12.59
59339;BMP280;45117;50.960;5.500;2022-11-15T09:29:17;99879.13;;;12.57
59339;BMP280;45117;50.960;5.500;2022-11-15T09:31:44;99881.00;;;12.19
59339;BMP280;45117;50.960;5.500;2022-11-15T09:34:11;99878.09;;;12.26
59339;BMP280;45117;50.960;5.500;2022-11-15T09:36:37;99888.16;;;12.38
59339;BMP280;45117;50.960;5.500;2022-11-15T09:39:04;99882.22;;;12.30
59339;BMP280;45117;50.960;5.500;2022-11-15T09:41:40;99876.50;;;12.41
59339;BMP280;45117;50.960;5.500;2022-11-15T09:44:27;99880.59;;;12.33
59339;BMP280;45117;50.960;5.500;2022-11-15T09:47:03;99870.28;;;12.57
59339;BMP280;45117;50.960;5.500;2022-11-15T09:49:31;99866.53;;;12.54
59339;BMP280;45117;50.960;5.500;2022-11-15T09:51:58;99868.59;;;12.63
59339;BMP280;45117;50.960;5.500;2022-11-15T09:54:28;99861.22;;;12.89
59339;BMP280;45117;50.960;5.500;2022-11-15T09:56:56;99859.72;;;13.13
59339;BMP280;45117;50.960;5.500;2022-11-15T10:02:27;99867.03;;;13.13
59339;BMP280;45117;50.960;5.500;2022-11-15T10:04:57;99870.50;;;13.13
59339;BMP280;45117;50.960;5.500;2022-11-15T10:07:27;99868.78;;;13.29
59339;BMP280;45117;50.960;5.500;2022-11-15T10:09:58;99861.63;;;13.26
59339;BMP280;45117;50.960;5.500;2022-11-15T10:12:27;99848.84;;;13.39
59339;BMP280;45117;50.960;5.500;2022-11-15T10:15:06;99858.88;;;13.60
59339;BMP280;45117;50.960;5.500;2022-11-15T10:18:03;99859.06;;;13.09
59339;BMP280;45117;50.960;5.500;2022-11-15T10:20:34;99850.16;;;13.34
59339;BMP280;45117;50.960;5.500;2022-11-15T10:23:07;99846.03;;;13.42
59339;BMP280;45117;50.960;5.500;2022-11-15T10:25:36;99837.63;;;13.06
59339;BMP280;45117;50.960;5.500;2022-11-15T10:28:11;99831.84;;;13.16
59339;BMP280;45117;50.960;5.500;2022-11-15T10:30:42;99848.94;;;13.13
59339;BMP280;45117;50.960;5.500;2022-11-15T10:33:27;99817.66;;;13.03
59339;BMP280;45117;50.960;5.500;2022-11-15T10:36:22;99823.28;;;13.09
59339;BMP280;45117;50.960;5.500;2022-11-15T10:38:56;99815.44;;;12.89
59339;BMP280;45117;50.960;5.500;2022-11-15T10:41:30;99812.41;;;13.00
59339;BMP280;45117;50.960;5.500;2022-11-15T10:44:11;99804.00;;;12.98
59339;BMP280;45117;50.960;5.500;2022-11-15T10:46:40;99797.59;;;12.70
59339;BMP280;45117;50.960;5.500;2022-11-15T10:49:13;99804.16;;;12.69
59339;BMP280;45117;50.960;5.500;2022-11-15T10:51:42;99801.28;;;12.63
59339;BMP280;45117;50.960;5.500;2022-11-15T10:54:12;99799.66;;;12.65
59339;BMP280;45117;50.960;5.500;2022-11-15T10:56:41;99795.44;;;12.64
59339;BMP280;45117;50.960;5.500;2022-11-15T10:59:16;99797.47;;;12.60
59339;BMP280;45117;50.960;5.500;2022-11-15T11:01:48;99788.00;;;12.69
59339;BMP280;45117;50.960;5.500;2022-11-15T11:04:15;99771.00;;;12.72
59339;BMP280;45117;50.960;5.500;2022-11-15T11:06:49;99767.13;;;12.73
59339;BMP280;45117;50.960;5.500;2022-11-15T11:09:30;99759.88;;;12.70
59339;BMP280;45117;50.960;5.500;2022-11-15T11:11:57;99755.47;;;12.76
59339;BMP280;45117;50.960;5.500;2022-11-15T11:14:24;99752.78;;;12.76
59339;BMP280;45117;50.960;5.500;2022-11-15T11:17:01;99750.22;;;12.72
59339;BMP280;45117;50.960;5.500;2022-11-15T11:19:39;99744.59;;;12.79
59339;BMP280;45117;50.960;5.500;2022-11-15T11:22:17;99739.41;;;12.85
59339;BMP280;45117;50.960;5.500;2022-11-15T11:24:51;99730.53;;;12.97
59339;BMP280;45117;50.960;5.500;2022-11-15T11:27:29;99736.16;;;13.12
59339;BMP280;45117;50.960;5.500;2022-11-15T11:30:04;99727.38;;;13.20
59339;BMP280;45117;50.960;5.500;2022-11-15T11:32:55;99719.59;;;13.13
59339;BMP280;45117;50.960;5.500;2022-11-15T11:35:29;99708.81;;;13.13
59339;BMP280;45117;50.960;5.500;2022-11-15T11:38:06;99700.19;;;13.28
59339;BMP280;45117;50.960;5.500;2022-11-15T11:40:42;99697.84;;;13.30
59339;BMP280;45117;50.960;5.500;2022-11-15T11:43:16;99688.19;;;13.19
59339;BMP280;45117;50.960;5.500;2022-11-15T11:45:57;99687.53;;;13.15
59339;BMP280;45117;50.960;5.500;2022-11-15T11:48:40;99677.44;;;13.07
59339;BMP280;45117;50.960;5.500;2022-11-15T11:51:12;99672.25;;;13.12
59339;BMP280;45117;50.960;5.500;2022-11-15T11:53:44;99663.34;;;13.03
59339;BMP280;45117;50.960;5.500;2022-11-15T11:56:19;99652.56;;;13.03
59339;BMP280;45117;50.960;5.500;2022-11-15T12:02:14;99647.81;;;13.07
59339;BMP280;45117;50.960;5.500;2022-11-15T12:04:46;99647.34;;;13.08
59339;BMP280;45117;50.960;5.500;2022-11-15T12:07:19;99638.25;;;13.06
59339;BMP280;45117;50.960;5.500;2022-11-15T12:09:53;99641.22;;;13.08
59339;BMP280;45117;50.960;5.500;2022-11-15T12:12:27;99644.66;;;13.08
59339;BMP280;45117;50.960;5.500;2022-11-15T12:14:56;99620.13;;;13.06
59339;BMP280;45117;50.960;5.500;2022-11-15T12:17:25;99616.22;;;13.07
59339;BMP280;45117;50.960;5.500;2022-11-15T12:19:56;99619.91;;;13.13
59339;BMP280;45117;50.960;5.500;2022-11-15T12:22:29;99614.94;;;13.21
59339;BMP280;45117;50.960;5.500;2022-11-15T12:25:02;99604.81;;;13.25
59339;BMP280;45117;50.960;5.500;2022-11-15T12:27:35;99598.41;;;13.32
59339;BMP280;45117;50.960;5.500;2022-11-15T12:30:07;99603.97;;;13.37
59339;BMP280;45117;50.960;5.500;2022-11-15T12:32:37;99591.53;;;13.31
59339;BMP280;45117;50.960;5.500;2022-11-15T12:35:21;99582.84;;;13.36
59339;BMP280;45117;50.960;5.500;2022-11-15T12:37:50;99579.41;;;13.35
59339;BMP280;45117;50.960;5.500;2022-11-15T12:40:23;99577.59;;;13.32
59339;BMP280;45117;50.960;5.500;2022-11-15T12:45:54;99572.81;;;13.36
59339;BMP280;45117;50.960;5.500;2022-11-15T12:57:46;99539.63;;;13.58
59339;BMP280;45117;50.960;5.500;2022-11-15T13:00:42;99540.56;;;13.64
59339;BMP280;45117;50.960;5.500;2022-11-15T13:03:27;99526.94;;;13.67
59339;BMP280;45117;50.960;5.500;2022-11-15T13:06:06;99520.63;;;13.70
59339;BMP280;45117;50.960;5.500;2022-11-15T13:08:56;99507.59;;;13.87
59339;BMP280;45117;50.960;5.500;2022-11-15T13:11:43;99514.38;;;13.82
59339;BMP280;45117;50.960;5.500;2022-11-15T13:14:44;99507.00;;;13.83
59339;BMP280;45117;50.960;5.500;2022-11-15T13:17:23;99507.94;;;13.89
59339;BMP280;45117;50.960;5.500;2022-11-15T13:19:56;99507.44;;;13.91
59339;BMP280;45117;50.960;5.500;2022-11-15T13:22:24;99504.75;;;13.91
59339;BMP280;45117;50.960;5.500;2022-11-15T13:25:15;99492.50;;;13.90
59339;BMP280;45117;50.960;5.500;2022-11-15T13:27:44;99489.66;;;13.84
59339;BMP280;45117;50.960;5.500;2022-11-15T13:30:23;99481.84;;;13.86
59339;BMP280;45117;50.960;5.500;2022-11-15T13:32:50;99481.38;;;13.88
59339;BMP280;45117;50.960;5.500;2022-11-15T13:35:22;99468.34;;;13.86
59339;BMP280;45117;50.960;5.500;2022-11-15T13:37:49;99476.16;;;13.84
59339;BMP280;45117;50.960;5.500;2022-11-15T13:40:24;99473.00;;;13.86
59339;BMP280;45117;50.960;5.500;2022-11-15T13:42:53;99479.28;;;13.92
59339;BMP280;45117;50.960;5.500;2022-11-15T13:45:21;99473.88;;;13.92
59339;BMP280;45117;50.960;5.500;2022-11-15T13:47:53;99467.59;;;13.95
59339;BMP280;45117;50.960;5.500;2022-11-15T13:50:22;99467.31;;;13.93
59339;BMP280;45117;50.960;5.500;2022-11-15T13:52:51;99466.41;;;13.96
59339;BMP280;45117;50.960;5.500;2022-11-15T13:55:20;99462.34;;;14.00
59339;BMP280;45117;50.960;5.500;2022-11-15T13:57:50;99446.78;;;13.95
59339;BMP280;45117;50.960;5.500;2022-11-15T14:00:35;99440.16;;;14.05
59339;BMP280;45117;50.960;5.500;2022-11-15T14:03:07;99436.84;;;14.10
59339;BMP280;45117;50.960;5.500;2022-11-15T14:05:34;99446.16;;;14.09
59339;BMP280;45117;50.960;5.500;2022-11-15T14:08:03;99423.53;;;14.07
59339;BMP280;45117;50.960;5.500;2022-11-15T14:10:32;99416.63;;;14.06
59339;BMP280;45117;50.960;5.500;2022-11-15T14:12:59;99421.44;;;14.02
59339;BMP280;45117;50.960;5.500;2022-11-15T14:15:31;99401.81;;;14.01
59339;BMP280;45117;50.960;5.500;2022-11-15T14:17:58;99390.25;;;13.92
59339;BMP280;45117;50.960;5.500;2022-11-15T14:20:28;99398.22;;;13.95
59339;BMP280;45117;50.960;5.500;2022-11-15T14:22:57;99399.09;;;13.92
59339;BMP280;45117;50.960;5.500;2022-11-15T14:25:25;99396.59;;;13.89
59339;BMP280;45117;50.960;5.500;2022-11-15T14:28:16;99391.78;;;13.83
59339;BMP280;45117;50.960;5.500;2022-11-15T14:30:45;99384.59;;;13.80
59339;BMP280;45117;50.960;5.500;2022-11-15T14:33:21;99380.09;;;13.77
59339;BMP280;45117;50.960;5.500;2022-11-15T14:35:48;99378.88;;;13.78
59339;BMP280;45117;50.960;5.500;2022-11-15T14:38:15;99379.50;;;13.73
59339;BMP280;45117;50.960;5.500;2022-11-15T14:40:42;99371.69;;;13.75
59339;BMP280;45117;50.960;5.500;2022-11-15T14:43:09;99365.56;;;13.75
59339;BMP280;45117;50.960;5.500;2022-11-15T14:45:36;99355.84;;;13.68